sensor_id;sensor_type;location;lat;lon;timestamp;temperature;humidity
37518;DHT22;23366;52.498;13.446;2023-08-17T00:00:30;21.30;99.90
37518;DHT22;23366;52.498;13.446;2023-08-17T00:02:55;21.20;99.90
37518;DHT22;23366;52.498;13.446;2023-08-17T00:05:21;21.20;99.90
37518;DHT22;23366;52.498;13.446;2023-08-17T00:07:46;21.20;99.90
37518;DHT22;23366;52.498;13.446;2023-08-17T00:10:12;21.20;99.90
37518;DHT22;23366;52.498;13.446;2023-08-17T00:12:41;21.10;99.90
37518;DHT22;23366;52.498;13.446;2023-08-17T00:15:06;21.10;99.90
37518;DHT22;23366;52.498;13.446;2023-08-17T00:17:32;21.00;99.90
37518;DHT22;23366;52.498;13.446;2023-08-17T00:19:59;21.00;99.90
37518;DHT22;23366;52.498;13.446;2023-08-17T00:22:26;21.00;99.90
37518;DHT22;23366;52.498;13.446;2023-08-17T00:24:51;21.00;99.90
37518;DHT22;23366;52.498;13.446;2023-08-17T00:27:17;20.90;99.90
37518;DHT22;23366;52.498;13.446;2023-08-17T00:29:42;20.90;99.90
37518;DHT22;23366;52.498;13.446;2023-08-17T00:32:08;20.90;99.90
37518;DHT22;23366;52.498;13.446;2023-08-17T00:34:34;20.80;99.90
37518;DHT22;23366;52.498;13.446;2023-08-17T00:36:59;20.80;99.90
37518;DHT22;23366;52.498;13.446;2023-08-17T00:39:24;20.70;99.90
37518;DHT22;23366;52.498;13.446;2023-08-17T00:41:50;20.70;99.90
37518;DHT22;23366;52.498;13.446;2023-08-17T00:44:16;20.70;99.90
37518;DHT22;23366;52.498;13.446;2023-08-17T00:46:41;20.70;99.90
37518;DHT22;23366;52.498;13.446;2023-08-17T00:49:07;20.60;99.90
37518;DHT22;23366;52.498;13.446;2023-08-17T00:51:33;20.60;99.90
37518;DHT22;23366;52.498;13.446;2023-08-17T00:53:59;20.60;99.90
37518;DHT22;23366;52.498;13.446;2023-08-17T00:56:26;20.60;99.90
37518;DHT22;23366;52.498;13.446;2023-08-17T00:58:52;20.60;99.90
37518;DHT22;23366;52.498;13.446;2023-08-17T01:01:19;20.50;99.90
37518;DHT22;23366;52.498;13.446;2023-08-17T01:03:45;20.50;99.90
37518;DHT22;23366;52.498;13.446;2023-08-17T01:06:10;20.50;99.90
37518;DHT22;23366;52.498;13.446;2023-08-17T01:08:37;20.40;99.90
37518;DHT22;23366;52.498;13.446;2023-08-17T01:11:14;20.40;99.90
37518;DHT22;23366;52.498;13.446;2023-08-17T01:14:09;20.40;99.90
37518;DHT22;23366;52.498;13.446;2023-08-17T01:16:43;20.40;99.90
37518;DHT22;23366;52.498;13.446;2023-08-17T01:19:12;20.40;99.90
37518;DHT22;23366;52.498;13.446;2023-08-17T01:21:49;20.40;99.90
37518;DHT22;23366;52.498;13.446;2023-08-17T01:24:15;20.40;99.90
37518;DHT22;23366;52.498;13.446;2023-08-17T01:26:40;20.30;99.90
37518;DHT22;23366;52.498;13.446;2023-08-17T01:29:06;20.30;99.90
37518;DHT22;23366;52.498;13.446;2023-08-17T01:34:24;20.30;99.90
37518;DHT22;23366;52.498;13.446;2023-08-17T01:36:59;20.20;99.90
37518;DHT22;23366;52.498;13.446;2023-08-17T01:39:39;20.20;99.90
37518;DHT22;23366;52.498;13.446;2023-08-17T01:42:08;20.20;99.90
37518;DHT22;23366;52.498;13.446;2023-08-17T01:44:35;20.10;99.90
37518;DHT22;23366;52.498;13.446;2023-08-17T01:47:01;20.10;99.90
37518;DHT22;23366;52.498;13.446;2023-08-17T01:49:26;20.10;99.90
37518;DHT22;23366;52.498;13.446;2023-08-17T01:51:52;20.10;99.90
37518;DHT22;23366;52.498;13.446;2023-08-17T01:54:17;20.10;99.90
37518;DHT22;23366;52.498;13.446;2023-08-17T01:56:43;20.00;99.90
37518;DHT22;23366;52.498;13.446;2023-08-17T01:59:08;20.00;99.90
37518;DHT22;23366;52.498;13.446;2023-08-17T02:01:33;20.00;99.90
37518;DHT22;23366;52.498;13.446;2023-08-17T02:03:59;20.00;99.90
37518;DHT22;23366;52.498;13.446;2023-08-17T02:06:27;20.00;99.90
37518;DHT22;23366;52.498;13.446;2023-08-17T02:08:53;19.90;99.90
37518;DHT22;23366;52.498;13.446;2023-08-17T02:11:18;19.90;99.90
37518;DHT22;23366;52.498;13.446;2023-08-17T02:13:44;19.90;99.90
37518;DHT22;23366;52.498;13.446;2023-08-17T02:16:09;19.90;99.90
37518;DHT22;23366;52.498;13.446;2023-08-17T02:18:35;19.90;99.90
37518;DHT22;23366;52.498;13.446;2023-08-17T02:21:00;19.90;99.90
37518;DHT22;23366;52.498;13.446;2023-08-17T02:23:26;19.80;99.90
37518;DHT22;23366;52.498;13.446;2023-08-17T02:25:51;19.80;99.90
37518;DHT22;23366;52.498;13.446;2023-08-17T02:28:17;19.80;99.90
37518;DHT22;23366;52.498;13.446;2023-08-17T02:30:43;19.80;99.90
37518;DHT22;23366;52.498;13.446;2023-08-17T02:33:08;19.80;99.90
37518;DHT22;23366;52.498;13.446;2023-08-17T02:35:34;19.90;99.90
37518;DHT22;23366;52.498;13.446;2023-08-17T02:37:59;19.80;99.90
37518;DHT22;23366;52.498;13.446;2023-08-17T02:40:25;19.80;99.90
37518;DHT22;23366;52.498;13.446;2023-08-17T02:42:50;19.70;99.90
37518;DHT22;23366;52.498;13.446;2023-08-17T02:45:16;19.80;99.90
37518;DHT22;23366;52.498;13.446;2023-08-17T02:47:41;19.70;99.90
37518;DHT22;23366;52.498;13.446;2023-08-17T02:50:07;19.70;99.90
37518;DHT22;23366;52.498;13.446;2023-08-17T02:52:33;19.70;99.90
37518;DHT22;23366;52.498;13.446;2023-08-17T02:54:59;19.70;99.90
37518;DHT22;23366;52.498;13.446;2023-08-17T02:57:24;19.60;99.90
37518;DHT22;23366;52.498;13.446;2023-08-17T02:59:50;19.70;99.90
37518;DHT22;23366;52.498;13.446;2023-08-17T03:02:15;19.70;99.90
37518;DHT22;23366;52.498;13.446;2023-08-17T03:04:41;19.60;99.90
37518;DHT22;23366;52.498;13.446;2023-08-17T03:07:07;19.60;99.90
37518;DHT22;23366;52.498;13.446;2023-08-17T03:09:32;19.60;99.90
37518;DHT22;23366;52.498;13.446;2023-08-17T03:11:58;19.50;99.90
37518;DHT22;23366;52.498;13.446;2023-08-17T03:14:23;19.50;99.90
37518;DHT22;23366;52.498;13.446;2023-08-17T03:16:49;19.50;99.90
37518;DHT22;23366;52.498;13.446;2023-08-17T03:19:15;19.60;99.90
37518;DHT22;23366;52.498;13.446;2023-08-17T03:21:40;19.60;99.90
37518;DHT22;23366;52.498;13.446;2023-08-17T03:24:06;19.60;99.90
37518;DHT22;23366;52.498;13.446;2023-08-17T03:26:32;19.60;99.90
37518;DHT22;23366;52.498;13.446;2023-08-17T03:28:57;19.60;99.90
37518;DHT22;23366;52.498;13.446;2023-08-17T03:31:22;19.70;99.90
37518;DHT22;23366;52.498;13.446;2023-08-17T03:33:48;19.60;99.90
37518;DHT22;23366;52.498;13.446;2023-08-17T03:36:14;19.70;99.90
37518;DHT22;23366;52.498;13.446;2023-08-17T03:38:40;19.70;99.90
37518;DHT22;23366;52.498;13.446;2023-08-17T03:41:06;19.70;99.90
37518;DHT22;23366;52.498;13.446;2023-08-17T03:43:32;19.60;99.90
37518;DHT22;23366;52.498;13.446;2023-08-17T03:45:57;19.60;99.90
37518;DHT22;23366;52.498;13.446;2023-08-17T03:48:23;19.60;99.90
37518;DHT22;23366;52.498;13.446;2023-08-17T03:50:52;19.70;99.90
37518;DHT22;23366;52.498;13.446;2023-08-17T03:53:18;19.80;99.90
37518;DHT22;23366;52.498;13.446;2023-08-17T03:55:50;19.80;99.90
37518;DHT22;23366;52.498;13.446;2023-08-17T03:58:17;19.80;99.90
37518;DHT22;23366;52.498;13.446;2023-08-17T04:00:47;19.80;99.90
37518;DHT22;23366;52.498;13.446;2023-08-17T04:03:13;19.90;99.90
37518;DHT22;23366;52.498;13.446;2023-08-17T04:05:39;19.90;99.90
37518;DHT22;23366;52.498;13.446;2023-08-17T04:08:04;19.90;99.90
37518;DHT22;23366;52.498;13.446;2023-08-17T04:10:30;19.80;99.90
37518;DHT22;23366;52.498;13.446;2023-08-17T04:12:56;19.80;99.90
37518;DHT22;23366;52.498;13.446;2023-08-17T04:15:22;19.90;99.90
37518;DHT22;23366;52.498;13.446;2023-08-17T04:17:47;19.90;99.90
37518;DHT22;23366;52.498;13.446;2023-08-17T04:20:13;19.90;99.90
37518;DHT22;23366;52.498;13.446;2023-08-17T04:22:38;19.80;99.90
37518;DHT22;23366;52.498;13.446;2023-08-17T04:25:04;19.80;99.90
37518;DHT22;23366;52.498;13.446;2023-08-17T04:27:30;19.90;99.90
37518;DHT22;23366;52.498;13.446;2023-08-17T04:29:57;20.00;99.90
37518;DHT22;23366;52.498;13.446;2023-08-17T04:32:22;20.10;99.90
37518;DHT22;23366;52.498;13.446;2023-08-17T04:34:47;20.20;99.90
37518;DHT22;23366;52.498;13.446;2023-08-17T04:37:13;20.20;99.90
37518;DHT22;23366;52.498;13.446;2023-08-17T04:39:39;20.30;99.90
37518;DHT22;23366;52.498;13.446;2023-08-17T04:42:06;20.30;99.90
37518;DHT22;23366;52.498;13.446;2023-08-17T04:44:31;20.50;99.90
37518;DHT22;23366;52.498;13.446;2023-08-17T04:46:57;20.50;99.90
37518;DHT22;23366;52.498;13.446;2023-08-17T04:49:23;20.60;99.90
37518;DHT22;23366;52.498;13.446;2023-08-17T04:51:49;20.60;99.90
37518;DHT22;23366;52.498;13.446;2023-08-17T04:54:14;20.60;99.90
37518;DHT22;23366;52.498;13.446;2023-08-17T04:56:40;20.60;99.90
37518;DHT22;23366;52.498;13.446;2023-08-17T04:59:05;20.80;99.90
37518;DHT22;23366;52.498;13.446;2023-08-17T05:01:31;21.00;99.90
37518;DHT22;23366;52.498;13.446;2023-08-17T05:03:57;21.10;99.90
37518;DHT22;23366;52.498;13.446;2023-08-17T05:06:22;21.20;99.90
37518;DHT22;23366;52.498;13.446;2023-08-17T05:08:48;21.10;99.90
37518;DHT22;23366;52.498;13.446;2023-08-17T05:11:14;21.20;99.90
37518;DHT22;23366;52.498;13.446;2023-08-17T05:13:39;21.50;99.90
37518;DHT22;23366;52.498;13.446;2023-08-17T05:16:05;21.80;99.90
37518;DHT22;23366;52.498;13.446;2023-08-17T05:18:30;22.00;99.90
37518;DHT22;23366;52.498;13.446;2023-08-17T05:20:56;22.00;99.90
37518;DHT22;23366;52.498;13.446;2023-08-17T05:23:21;22.00;99.90
37518;DHT22;23366;52.498;13.446;2023-08-17T05:25:47;22.20;99.90
37518;DHT22;23366;52.498;13.446;2023-08-17T05:28:13;22.70;99.90
37518;DHT22;23366;52.498;13.446;2023-08-17T05:30:38;23.20;99.90
37518;DHT22;23366;52.498;13.446;2023-08-17T05:33:04;23.70;99.90
37518;DHT22;23366;52.498;13.446;2023-08-17T05:35:29;24.30;99.90
37518;DHT22;23366;52.498;13.446;2023-08-17T05:37:55;24.90;99.90
37518;DHT22;23366;52.498;13.446;2023-08-17T05:40:20;25.20;99.70
37518;DHT22;23366;52.498;13.446;2023-08-17T05:42:46;25.20;99.00
37518;DHT22;23366;52.498;13.446;2023-08-17T05:45:11;25.30;98.60
37518;DHT22;23366;52.498;13.446;2023-08-17T05:47:37;25.20;98.40
37518;DHT22;23366;52.498;13.446;2023-08-17T05:50:02;25.00;98.60
37518;DHT22;23366;52.498;13.446;2023-08-17T05:52:28;24.60;99.10
37518;DHT22;23366;52.498;13.446;2023-08-17T05:54:53;24.40;99.50
37518;DHT22;23366;52.498;13.446;2023-08-17T05:57:19;24.10;99.80
37518;DHT22;23366;52.498;13.446;2023-08-17T05:59:44;23.70;99.90
37518;DHT22;23366;52.498;13.446;2023-08-17T06:02:10;23.40;99.90
37518;DHT22;23366;52.498;13.446;2023-08-17T06:04:35;23.00;99.90
37518;DHT22;23366;52.498;13.446;2023-08-17T06:07:01;23.00;99.90
37518;DHT22;23366;52.498;13.446;2023-08-17T06:09:26;22.90;99.90
37518;DHT22;23366;52.498;13.446;2023-08-17T06:11:52;22.80;99.90
37518;DHT22;23366;52.498;13.446;2023-08-17T06:14:17;22.70;99.90
37518;DHT22;23366;52.498;13.446;2023-08-17T06:16:43;22.60;99.90
37518;DHT22;23366;52.498;13.446;2023-08-17T06:19:08;22.50;99.90
37518;DHT22;23366;52.498;13.446;2023-08-17T06:21:33;22.40;99.90
37518;DHT22;23366;52.498;13.446;2023-08-17T06:23:59;22.20;99.90
37518;DHT22;23366;52.498;13.446;2023-08-17T06:26:24;22.10;99.90
37518;DHT22;23366;52.498;13.446;2023-08-17T06:28:50;22.00;99.90
37518;DHT22;23366;52.498;13.446;2023-08-17T06:31:15;22.00;99.90
37518;DHT22;23366;52.498;13.446;2023-08-17T06:33:41;21.90;99.90
37518;DHT22;23366;52.498;13.446;2023-08-17T06:36:06;21.90;99.90
37518;DHT22;23366;52.498;13.446;2023-08-17T06:38:32;21.80;99.90
37518;DHT22;23366;52.498;13.446;2023-08-17T06:40:57;21.80;99.90
37518;DHT22;23366;52.498;13.446;2023-08-17T06:43:23;21.90;99.90
37518;DHT22;23366;52.498;13.446;2023-08-17T06:45:48;21.90;99.90
37518;DHT22;23366;52.498;13.446;2023-08-17T06:48:13;21.80;99.90
37518;DHT22;23366;52.498;13.446;2023-08-17T06:50:39;21.90;99.90
37518;DHT22;23366;52.498;13.446;2023-08-17T06:53:04;22.00;99.90
37518;DHT22;23366;52.498;13.446;2023-08-17T06:55:30;21.90;99.90
37518;DHT22;23366;52.498;13.446;2023-08-17T06:57:56;22.00;99.90
37518;DHT22;23366;52.498;13.446;2023-08-17T07:00:21;22.00;99.90
37518;DHT22;23366;52.498;13.446;2023-08-17T07:02:47;22.10;99.90
37518;DHT22;23366;52.498;13.446;2023-08-17T07:05:16;22.10;99.90
37518;DHT22;23366;52.498;13.446;2023-08-17T07:07:55;22.20;99.90
37518;DHT22;23366;52.498;13.446;2023-08-17T07:10:24;22.40;99.90
37518;DHT22;23366;52.498;13.446;2023-08-17T07:12:49;22.50;99.90
37518;DHT22;23366;52.498;13.446;2023-08-17T07:15:15;22.60;99.90
37518;DHT22;23366;52.498;13.446;2023-08-17T07:17:40;22.70;99.90
37518;DHT22;23366;52.498;13.446;2023-08-17T07:20:06;22.70;99.90
37518;DHT22;23366;52.498;13.446;2023-08-17T07:22:33;22.80;99.90
37518;DHT22;23366;52.498;13.446;2023-08-17T07:24:58;22.70;99.90
37518;DHT22;23366;52.498;13.446;2023-08-17T07:27:24;22.80;99.90
37518;DHT22;23366;52.498;13.446;2023-08-17T07:29:49;22.90;99.90
37518;DHT22;23366;52.498;13.446;2023-08-17T07:32:15;22.90;99.90
37518;DHT22;23366;52.498;13.446;2023-08-17T07:34:40;22.90;99.90
37518;DHT22;23366;52.498;13.446;2023-08-17T07:37:06;22.80;99.90
37518;DHT22;23366;52.498;13.446;2023-08-17T07:39:32;22.80;99.90
37518;DHT22;23366;52.498;13.446;2023-08-17T07:41:57;22.70;99.90
37518;DHT22;23366;52.498;13.446;2023-08-17T07:44:23;22.70;99.90
37518;DHT22;23366;52.498;13.446;2023-08-17T07:46:48;22.60;99.90
37518;DHT22;23366;52.498;13.446;2023-08-17T07:49:14;22.60;99.90
37518;DHT22;23366;52.498;13.446;2023-08-17T07:51:39;22.70;99.90
37518;DHT22;23366;52.498;13.446;2023-08-17T07:54:05;22.60;99.90
37518;DHT22;23366;52.498;13.446;2023-08-17T07:56:30;23.00;99.90
37518;DHT22;23366;52.498;13.446;2023-08-17T07:58:56;23.20;99.90
37518;DHT22;23366;52.498;13.446;2023-08-17T08:01:21;23.30;99.90
37518;DHT22;23366;52.498;13.446;2023-08-17T08:03:47;23.50;99.90
37518;DHT22;23366;52.498;13.446;2023-08-17T08:06:12;23.60;99.90
37518;DHT22;23366;52.498;13.446;2023-08-17T08:08:39;23.30;99.90
37518;DHT22;23366;52.498;13.446;2023-08-17T08:11:04;23.20;99.90
37518;DHT22;23366;52.498;13.446;2023-08-17T08:13:30;23.20;99.90
37518;DHT22;23366;52.498;13.446;2023-08-17T08:15:56;23.20;99.90
37518;DHT22;23366;52.498;13.446;2023-08-17T08:18:22;23.80;99.90
37518;DHT22;23366;52.498;13.446;2023-08-17T08:20:48;25.30;99.90
37518;DHT22;23366;52.498;13.446;2023-08-17T08:23:13;27.30;98.80
37518;DHT22;23366;52.498;13.446;2023-08-17T08:25:39;29.00;96.20
37518;DHT22;23366;52.498;13.446;2023-08-17T08:28:05;30.10;93.60
37518;DHT22;23366;52.498;13.446;2023-08-17T08:30:30;29.90;92.50
37518;DHT22;23366;52.498;13.446;2023-08-17T08:32:56;29.60;92.80
37518;DHT22;23366;52.498;13.446;2023-08-17T08:35:23;29.70;92.50
37518;DHT22;23366;52.498;13.446;2023-08-17T08:37:49;29.80;92.10
37518;DHT22;23366;52.498;13.446;2023-08-17T08:40:17;29.70;92.00
37518;DHT22;23366;52.498;13.446;2023-08-17T08:42:43;29.40;92.10
37518;DHT22;23366;52.498;13.446;2023-08-17T08:45:09;29.20;92.40
37518;DHT22;23366;52.498;13.446;2023-08-17T08:47:36;28.80;92.90
37518;DHT22;23366;52.498;13.446;2023-08-17T08:50:04;28.20;93.40
37518;DHT22;23366;52.498;13.446;2023-08-17T08:52:42;27.60;94.20
37518;DHT22;23366;52.498;13.446;2023-08-17T08:55:11;27.00;95.40
37518;DHT22;23366;52.498;13.446;2023-08-17T08:57:39;26.70;95.70
37518;DHT22;23366;52.498;13.446;2023-08-17T09:00:06;25.90;96.70
37518;DHT22;23366;52.498;13.446;2023-08-17T09:02:33;25.50;97.80
37518;DHT22;23366;52.498;13.446;2023-08-17T09:05:00;25.10;98.70
37518;DHT22;23366;52.498;13.446;2023-08-17T09:07:27;24.60;99.60
37518;DHT22;23366;52.498;13.446;2023-08-17T09:09:53;24.30;99.90
37518;DHT22;23366;52.498;13.446;2023-08-17T09:12:19;24.00;99.90
37518;DHT22;23366;52.498;13.446;2023-08-17T09:14:44;23.60;99.90
37518;DHT22;23366;52.498;13.446;2023-08-17T09:17:10;23.40;99.90
37518;DHT22;23366;52.498;13.446;2023-08-17T09:19:35;23.30;99.90
37518;DHT22;23366;52.498;13.446;2023-08-17T09:22:01;23.10;99.90
37518;DHT22;23366;52.498;13.446;2023-08-17T09:24:36;23.00;99.90
37518;DHT22;23366;52.498;13.446;2023-08-17T09:27:02;22.90;99.90
37518;DHT22;23366;52.498;13.446;2023-08-17T09:29:28;22.90;99.90
37518;DHT22;23366;52.498;13.446;2023-08-17T09:31:58;23.00;99.90
37518;DHT22;23366;52.498;13.446;2023-08-17T09:34:30;23.20;99.90
37518;DHT22;23366;52.498;13.446;2023-08-17T09:36:56;23.50;99.90
37518;DHT22;23366;52.498;13.446;2023-08-17T09:39:22;24.00;99.90
37518;DHT22;23366;52.498;13.446;2023-08-17T09:41:47;24.30;99.90
37518;DHT22;23366;52.498;13.446;2023-08-17T09:44:13;24.60;99.90
37518;DHT22;23366;52.498;13.446;2023-08-17T09:46:41;24.80;99.90
37518;DHT22;23366;52.498;13.446;2023-08-17T09:49:07;25.20;99.90
37518;DHT22;23366;52.498;13.446;2023-08-17T09:51:34;25.40;99.90
37518;DHT22;23366;52.498;13.446;2023-08-17T09:54:00;25.40;99.90
37518;DHT22;23366;52.498;13.446;2023-08-17T09:56:26;25.40;99.90
37518;DHT22;23366;52.498;13.446;2023-08-17T09:58:52;25.30;99.90
37518;DHT22;23366;52.498;13.446;2023-08-17T10:01:18;25.30;99.90
37518;DHT22;23366;52.498;13.446;2023-08-17T10:03:45;25.30;99.90
37518;DHT22;23366;52.498;13.446;2023-08-17T10:06:13;25.40;99.90
37518;DHT22;23366;52.498;13.446;2023-08-17T10:08:58;25.30;99.90
37518;DHT22;23366;52.498;13.446;2023-08-17T10:11:24;25.40;99.90
37518;DHT22;23366;52.498;13.446;2023-08-17T10:13:52;25.10;99.90
37518;DHT22;23366;52.498;13.446;2023-08-17T10:18:55;24.90;99.90
37518;DHT22;23366;52.498;13.446;2023-08-17T10:21:54;24.70;99.90
37518;DHT22;23366;52.498;13.446;2023-08-17T10:24:22;24.40;99.90
37518;DHT22;23366;52.498;13.446;2023-08-17T10:26:49;24.10;99.90
37518;DHT22;23366;52.498;13.446;2023-08-17T10:29:15;23.90;99.90
37518;DHT22;23366;52.498;13.446;2023-08-17T10:31:44;23.80;99.90
37518;DHT22;23366;52.498;13.446;2023-08-17T10:34:11;23.60;99.90
37518;DHT22;23366;52.498;13.446;2023-08-17T10:36:36;23.50;99.90
37518;DHT22;23366;52.498;13.446;2023-08-17T10:39:20;23.50;99.90
37518;DHT22;23366;52.498;13.446;2023-08-17T10:41:50;23.60;99.90
37518;DHT22;23366;52.498;13.446;2023-08-17T10:44:18;24.00;99.90
37518;DHT22;23366;52.498;13.446;2023-08-17T10:46:43;24.30;99.90
37518;DHT22;23366;52.498;13.446;2023-08-17T10:49:25;24.60;99.90
37518;DHT22;23366;52.498;13.446;2023-08-17T10:52:04;25.00;99.90
37518;DHT22;23366;52.498;13.446;2023-08-17T10:54:39;25.00;99.90
37518;DHT22;23366;52.498;13.446;2023-08-17T10:57:30;25.00;99.90
37518;DHT22;23366;52.498;13.446;2023-08-17T11:02:33;25.10;99.90
37518;DHT22;23366;52.498;13.446;2023-08-17T11:05:00;25.10;99.90
37518;DHT22;23366;52.498;13.446;2023-08-17T11:07:27;25.20;99.90
37518;DHT22;23366;52.498;13.446;2023-08-17T11:09:54;25.10;99.90
37518;DHT22;23366;52.498;13.446;2023-08-17T11:12:26;25.00;99.90
37518;DHT22;23366;52.498;13.446;2023-08-17T11:14:52;24.80;99.90
37518;DHT22;23366;52.498;13.446;2023-08-17T11:17:20;24.80;99.90
37518;DHT22;23366;52.498;13.446;2023-08-17T11:19:46;24.70;99.90
37518;DHT22;23366;52.498;13.446;2023-08-17T11:22:12;24.60;99.90
37518;DHT22;23366;52.498;13.446;2023-08-17T11:24:38;24.80;99.90
37518;DHT22;23366;52.498;13.446;2023-08-17T11:27:05;24.90;99.90
37518;DHT22;23366;52.498;13.446;2023-08-17T11:29:32;25.00;99.90
37518;DHT22;23366;52.498;13.446;2023-08-17T11:31:58;24.90;99.90
37518;DHT22;23366;52.498;13.446;2023-08-17T11:34:24;24.80;99.90
37518;DHT22;23366;52.498;13.446;2023-08-17T11:36:49;24.80;99.90
37518;DHT22;23366;52.498;13.446;2023-08-17T11:39:15;24.80;99.90
37518;DHT22;23366;52.498;13.446;2023-08-17T11:41:40;24.90;99.90
37518;DHT22;23366;52.498;13.446;2023-08-17T11:44:06;25.10;99.90
37518;DHT22;23366;52.498;13.446;2023-08-17T11:46:32;25.30;99.90
37518;DHT22;23366;52.498;13.446;2023-08-17T11:49:01;25.50;99.90
37518;DHT22;23366;52.498;13.446;2023-08-17T11:51:31;25.50;99.90
37518;DHT22;23366;52.498;13.446;2023-08-17T11:53:59;25.60;99.90
37518;DHT22;23366;52.498;13.446;2023-08-17T11:56:26;25.70;99.90
37518;DHT22;23366;52.498;13.446;2023-08-17T11:58:51;25.70;99.90
37518;DHT22;23366;52.498;13.446;2023-08-17T12:01:16;25.60;99.90
37518;DHT22;23366;52.498;13.446;2023-08-17T12:03:42;25.60;99.90
37518;DHT22;23366;52.498;13.446;2023-08-17T12:06:08;25.60;99.90
37518;DHT22;23366;52.498;13.446;2023-08-17T12:08:34;25.70;99.90
37518;DHT22;23366;52.498;13.446;2023-08-17T12:11:00;25.80;99.90
37518;DHT22;23366;52.498;13.446;2023-08-17T12:13:33;25.80;99.90
37518;DHT22;23366;52.498;13.446;2023-08-17T12:15:59;25.70;99.90
37518;DHT22;23366;52.498;13.446;2023-08-17T12:18:25;25.70;99.90
37518;DHT22;23366;52.498;13.446;2023-08-17T12:20:54;25.90;99.90
37518;DHT22;23366;52.498;13.446;2023-08-17T12:23:19;26.00;99.90
37518;DHT22;23366;52.498;13.446;2023-08-17T12:25:45;26.00;99.90
37518;DHT22;23366;52.498;13.446;2023-08-17T12:28:13;26.20;99.90
37518;DHT22;23366;52.498;13.446;2023-08-17T12:30:39;26.30;99.90
37518;DHT22;23366;52.498;13.446;2023-08-17T12:33:04;26.50;99.90
37518;DHT22;23366;52.498;13.446;2023-08-17T12:35:31;26.60;99.90
37518;DHT22;23366;52.498;13.446;2023-08-17T12:37:57;26.60;99.90
37518;DHT22;23366;52.498;13.446;2023-08-17T12:40:23;26.70;99.90
37518;DHT22;23366;52.498;13.446;2023-08-17T12:42:49;26.70;99.90
37518;DHT22;23366;52.498;13.446;2023-08-17T12:45:15;26.60;99.90
37518;DHT22;23366;52.498;13.446;2023-08-17T12:47:41;26.60;99.90
37518;DHT22;23366;52.498;13.446;2023-08-17T12:50:06;26.50;99.90
37518;DHT22;23366;52.498;13.446;2023-08-17T12:52:32;26.60;99.90
37518;DHT22;23366;52.498;13.446;2023-08-17T12:54:58;26.60;99.90
37518;DHT22;23366;52.498;13.446;2023-08-17T12:57:23;26.60;99.90
37518;DHT22;23366;52.498;13.446;2023-08-17T12:59:49;26.60;99.90
37518;DHT22;23366;52.498;13.446;2023-08-17T13:02:14;26.60;99.90
37518;DHT22;23366;52.498;13.446;2023-08-17T13:04:41;26.60;99.90
37518;DHT22;23366;52.498;13.446;2023-08-17T13:07:06;26.60;99.90
37518;DHT22;23366;52.498;13.446;2023-08-17T13:09:32;26.50;99.90
37518;DHT22;23366;52.498;13.446;2023-08-17T13:11:57;26.40;99.90
37518;DHT22;23366;52.498;13.446;2023-08-17T13:14:22;26.40;99.90
37518;DHT22;23366;52.498;13.446;2023-08-17T13:16:49;26.30;99.90
37518;DHT22;23366;52.498;13.446;2023-08-17T13:19:15;26.20;99.90
37518;DHT22;23366;52.498;13.446;2023-08-17T13:21:40;26.00;99.90
37518;DHT22;23366;52.498;13.446;2023-08-17T13:24:06;26.10;99.90
37518;DHT22;23366;52.498;13.446;2023-08-17T13:26:32;26.20;99.90
37518;DHT22;23366;52.498;13.446;2023-08-17T13:28:57;26.30;99.90
37518;DHT22;23366;52.498;13.446;2023-08-17T13:31:23;26.30;99.90
37518;DHT22;23366;52.498;13.446;2023-08-17T13:33:48;26.20;99.90
37518;DHT22;23366;52.498;13.446;2023-08-17T13:36:14;26.20;99.90
37518;DHT22;23366;52.498;13.446;2023-08-17T13:38:39;26.20;99.90
37518;DHT22;23366;52.498;13.446;2023-08-17T13:41:05;26.30;99.90
37518;DHT22;23366;52.498;13.446;2023-08-17T13:43:30;26.40;99.90
37518;DHT22;23366;52.498;13.446;2023-08-17T13:45:56;26.50;99.90
37518;DHT22;23366;52.498;13.446;2023-08-17T13:48:21;26.60;99.90
37518;DHT22;23366;52.498;13.446;2023-08-17T13:50:47;26.70;99.90
37518;DHT22;23366;52.498;13.446;2023-08-17T13:53:12;26.70;99.90
37518;DHT22;23366;52.498;13.446;2023-08-17T13:55:38;26.60;99.90
37518;DHT22;23366;52.498;13.446;2023-08-17T13:58:04;26.50;99.90
37518;DHT22;23366;52.498;13.446;2023-08-17T14:00:35;26.30;99.90
37518;DHT22;23366;52.498;13.446;2023-08-17T14:03:01;26.20;99.90
37518;DHT22;23366;52.498;13.446;2023-08-17T14:05:27;26.20;99.90
37518;DHT22;23366;52.498;13.446;2023-08-17T14:07:52;26.20;99.90
37518;DHT22;23366;52.498;13.446;2023-08-17T14:10:18;26.10;99.90
37518;DHT22;23366;52.498;13.446;2023-08-17T14:12:43;26.10;99.90
37518;DHT22;23366;52.498;13.446;2023-08-17T14:15:09;26.10;99.90
37518;DHT22;23366;52.498;13.446;2023-08-17T14:17:34;26.10;99.90
37518;DHT22;23366;52.498;13.446;2023-08-17T14:20:00;26.10;99.90
37518;DHT22;23366;52.498;13.446;2023-08-17T14:22:25;26.10;99.90
37518;DHT22;23366;52.498;13.446;2023-08-17T14:24:51;26.10;99.90
37518;DHT22;23366;52.498;13.446;2023-08-17T14:27:16;26.10;99.90
37518;DHT22;23366;52.498;13.446;2023-08-17T14:29:42;26.10;99.90
37518;DHT22;23366;52.498;13.446;2023-08-17T14:32:07;26.20;99.90
37518;DHT22;23366;52.498;13.446;2023-08-17T14:34:33;26.30;99.90
37518;DHT22;23366;52.498;13.446;2023-08-17T14:36:58;26.40;99.90
37518;DHT22;23366;52.498;13.446;2023-08-17T14:39:24;26.50;99.90
37518;DHT22;23366;52.498;13.446;2023-08-17T14:41:49;26.60;99.90
37518;DHT22;23366;52.498;13.446;2023-08-17T14:44:15;26.70;99.90
37518;DHT22;23366;52.498;13.446;2023-08-17T14:46:42;26.80;99.90
37518;DHT22;23366;52.498;13.446;2023-08-17T14:49:08;26.70;99.90
37518;DHT22;23366;52.498;13.446;2023-08-17T14:51:40;26.60;99.90
37518;DHT22;23366;52.498;13.446;2023-08-17T14:54:06;26.70;99.90
37518;DHT22;23366;52.498;13.446;2023-08-17T14:56:32;26.70;99.90
37518;DHT22;23366;52.498;13.446;2023-08-17T14:58:57;26.70;99.90
37518;DHT22;23366;52.498;13.446;2023-08-17T15:01:24;26.70;99.90
37518;DHT22;23366;52.498;13.446;2023-08-17T15:03:49;26.60;99.90
37518;DHT22;23366;52.498;13.446;2023-08-17T15:06:14;26.60;99.90
37518;DHT22;23366;52.498;13.446;2023-08-17T15:08:40;26.50;99.90
37518;DHT22;23366;52.498;13.446;2023-08-17T15:11:05;26.40;99.90
37518;DHT22;23366;52.498;13.446;2023-08-17T15:13:31;26.30;99.90
37518;DHT22;23366;52.498;13.446;2023-08-17T15:15:58;26.40;99.90
37518;DHT22;23366;52.498;13.446;2023-08-17T15:18:23;26.30;99.90